Time;durP1;ratioP1;P1;durP2;ratioP2;P2;SDS_P1;SDS_P2;PMS_P1;PMS_P2;Temp;Humidity;BMP_temperature;BMP_pressure;BME280_temperature;BME280_humidity;BME280_pressure;Samples;Min_cycle;Max_cycle;Signal;HPM_P1;HPM_P2
2020/12/02 00:02:44;;;;;;;53.45;17.77;;;2.10;99.90;;;;;;10328530;28;20049;-65
2020/12/02 00:07:50;;;;;;;56.95;20.48;;;2.10;99.90;;;;;;10323080;28;20056;-64
2020/12/02 00:12:51;;;;;;;56.33;18.75;;;2.10;99.90;;;;;;10324940;28;20156;-64
2020/12/02 00:17:59;;;;;;;59.17;19.15;;;2.10;99.90;;;;;;10328552;28;20057;-64
2020/12/02 00:23:00;;;;;;;56.90;19.38;;;2.10;99.90;;;;;;10327929;28;20065;-64
2020/12/02 00:28:04;;;;;;;56.50;19.92;;;2.10;99.90;;;;;;10326894;28;20069;-64
2020/12/02 00:33:13;;;;;;;61.92;18.60;;;2.00;99.90;;;;;;10326693;28;20054;-64
2020/12/02 00:38:15;;;;;;;56.95;18.80;;;2.10;99.90;;;;;;10331835;28;20045;-64
2020/12/02 00:43:20;;;;;;;59.50;18.90;;;2.00;99.90;;;;;;10330893;28;20115;-65
2020/12/02 00:48:23;;;;;;;60.85;20.60;;;2.00;99.90;;;;;;10324844;28;20077;-65
2020/12/02 00:53:28;;;;;;;57.38;20.98;;;1.90;99.90;;;;;;10340233;28;20107;-64
2020/12/02 00:59:01;;;;;;;56.38;18.60;;;2.00;99.90;;;;;;10337844;28;20045;-64
2020/12/02 01:04:02;;;;;;;55.22;19.15;;;1.90;99.90;;;;;;10270656;28;20049;-64
2020/12/02 01:09:03;;;;;;;52.97;20.42;;;1.90;99.90;;;;;;10336974;28;20113;-64
2020/12/02 01:14:08;;;;;;;45.92;16.00;;;1.90;99.90;;;;;;10335618;28;20489;-64
2020/12/02 01:19:12;;;;;;;48.03;16.63;;;1.90;99.90;;;;;;10335150;28;20455;-64
2020/12/02 01:24:19;;;;;;;46.05;16.60;;;1.90;99.90;;;;;;10336414;28;20053;-64
2020/12/02 01:29:23;;;;;;;44.58;16.83;;;1.90;99.90;;;;;;10333780;28;20052;-64
2020/12/02 01:34:25;;;;;;;43.38;16.55;;;1.80;99.90;;;;;;10334886;28;20045;-64
2020/12/02 01:39:31;;;;;;;42.22;17.58;;;1.90;99.90;;;;;;10333704;28;20758;-64
2020/12/02 01:44:32;;;;;;;36.60;15.48;;;1.90;99.90;;;;;;10333755;28;20052;-64
2020/12/02 01:49:49;;;;;;;35.25;15.80;;;2.00;99.90;;;;;;10317341;28;20045;-64
2020/12/02 01:54:56;;;;;;;39.92;15.63;;;2.00;99.90;;;;;;10332445;28;20053;-64
2020/12/02 02:00:12;;;;;;;38.70;15.97;;;2.10;99.90;;;;;;10333497;28;20049;-64
2020/12/02 02:05:28;;;;;;;41.72;17.05;;;2.10;99.90;;;;;;10330736;28;20049;-64
2020/12/02 02:10:35;;;;;;;37.67;15.48;;;2.10;99.90;;;;;;10335776;28;20149;-64
2020/12/02 02:15:49;;;;;;;37.63;16.75;;;2.10;99.90;;;;;;10325574;28;20068;-64
2020/12/02 02:20:58;;;;;;;37.15;16.35;;;2.20;99.90;;;;;;10330532;28;20088;-64
2020/12/02 02:26:08;;;;;;;37.78;15.43;;;2.20;99.90;;;;;;10330999;28;20079;-64
2020/12/02 02:31:12;;;;;;;34.30;14.55;;;2.30;99.90;;;;;;10335795;28;20049;-64
2020/12/02 02:36:16;;;;;;;34.33;15.38;;;2.30;99.90;;;;;;10330736;28;20054;-64
2020/12/02 02:41:19;;;;;;;31.88;14.75;;;2.30;99.90;;;;;;10334795;28;20046;-64
2020/12/02 02:46:21;;;;;;;40.22;16.48;;;2.30;99.90;;;;;;10332548;28;20064;-64
2020/12/02 02:51:22;;;;;;;36.17;15.50;;;2.30;99.90;;;;;;10335541;28;20675;-64
2020/12/02 02:56:23;;;;;;;34.58;15.98;;;2.30;99.90;;;;;;10334165;28;20050;-64
2020/12/02 03:01:25;;;;;;;32.10;14.32;;;2.30;99.90;;;;;;10337638;28;20045;-64
2020/12/02 03:06:33;;;;;;;34.08;15.07;;;2.30;99.90;;;;;;10327688;28;20050;-64
2020/12/02 03:11:35;;;;;;;34.35;14.25;;;2.30;99.90;;;;;;10330726;28;20037;-64
2020/12/02 03:16:44;;;;;;;40.28;16.27;;;2.30;99.90;;;;;;10332900;28;20062;-64
2020/12/02 03:21:46;;;;;;;36.67;15.13;;;2.30;99.90;;;;;;10336059;28;20049;-65
2020/12/02 03:26:48;;;;;;;39.20;16.75;;;2.30;99.90;;;;;;10327511;28;20117;-64
2020/12/02 03:31:49;;;;;;;42.75;15.27;;;2.30;99.90;;;;;;10326970;28;20069;-65
2020/12/02 03:36:50;;;;;;;32.50;16.05;;;2.30;99.90;;;;;;10326410;28;20430;-65
2020/12/02 03:41:52;;;;;;;36.55;15.02;;;2.20;99.90;;;;;;10331510;28;20061;-64
2020/12/02 03:46:54;;;;;;;40.17;15.18;;;2.30;99.90;;;;;;10332510;28;20799;-64
2020/12/02 03:51:55;;;;;;;34.95;15.35;;;2.20;99.90;;;;;;10329899;28;20081;-64
2020/12/02 03:56:56;;;;;;;36.22;15.10;;;2.20;99.90;;;;;;10328505;28;20568;-65
2020/12/02 04:01:58;;;;;;;39.45;15.20;;;2.20;99.90;;;;;;10328727;28;20132;-64
2020/12/02 04:06:59;;;;;;;34.25;14.68;;;2.20;99.90;;;;;;10330631;28;20179;-64
2020/12/02 04:12:00;;;;;;;38.13;15.18;;;2.20;99.90;;;;;;10331675;28;20054;-65
2020/12/02 04:17:01;;;;;;;38.22;14.90;;;2.20;99.90;;;;;;10327595;28;20049;-65
2020/12/02 04:22:03;;;;;;;37.47;16.27;;;2.20;99.90;;;;;;10332374;28;20057;-65
2020/12/02 04:27:05;;;;;;;37.83;14.50;;;2.20;99.90;;;;;;10329424;28;20148;-65
2020/12/02 04:32:06;;;;;;;36.20;14.95;;;2.20;99.90;;;;;;10331066;28;20131;-65
2020/12/02 04:37:07;;;;;;;40.55;15.32;;;2.30;99.90;;;;;;10331116;28;20050;-65
2020/12/02 04:42:09;;;;;;;43.72;17.45;;;2.20;99.90;;;;;;10327502;28;21168;-65
2020/12/02 04:47:11;;;;;;;35.13;15.30;;;2.20;99.90;;;;;;10325531;28;20065;-65
2020/12/02 04:52:14;;;;;;;35.30;14.68;;;2.30;99.90;;;;;;10322471;28;20046;-65
2020/12/02 04:57:16;;;;;;;34.05;15.02;;;2.20;99.90;;;;;;10332197;28;20049;-65
2020/12/02 05:02:24;;;;;;;34.80;14.07;;;2.20;99.90;;;;;;10330291;28;20481;-65
2020/12/02 05:07:30;;;;;;;33.38;14.27;;;2.20;99.90;;;;;;10331516;28;20061;-65
2020/12/02 05:12:37;;;;;;;35.90;15.30;;;2.20;99.90;;;;;;10328040;28;20048;-65
2020/12/02 05:17:39;;;;;;;37.25;15.27;;;2.20;99.90;;;;;;10329424;28;20057;-65
2020/12/02 05:22:45;;;;;;;33.03;13.57;;;2.20;99.90;;;;;;10332078;28;20061;-65
2020/12/02 05:27:52;;;;;;;37.70;15.17;;;2.20;99.90;;;;;;10326148;28;20053;-65
2020/12/02 05:33:12;;;;;;;34.65;14.30;;;2.30;99.90;;;;;;10330943;28;20116;-65
2020/12/02 05:38:36;;;;;;;32.72;14.15;;;2.30;99.90;;;;;;10281142;28;20057;-65
2020/12/02 05:43:48;;;;;;;31.98;13.60;;;2.30;99.90;;;;;;10336540;28;20064;-66
2020/12/02 05:49:00;;;;;;;34.50;15.48;;;2.30;99.90;;;;;;10334661;28;20050;-65
2020/12/02 05:54:08;;;;;;;39.47;16.00;;;2.30;99.90;;;;;;10333558;28;20062;-65
2020/12/02 05:59:10;;;;;;;37.35;15.38;;;2.40;99.90;;;;;;10336010;28;20103;-65
2020/12/02 06:04:14;;;;;;;35.60;13.75;;;2.40;99.90;;;;;;10336169;28;20042;-65
2020/12/02 06:09:16;;;;;;;34.58;14.63;;;2.40;99.90;;;;;;10338233;28;20045;-65
2020/12/02 06:14:32;;;;;;;35.20;14.75;;;2.30;99.90;;;;;;10336426;28;20054;-65
2020/12/02 06:19:48;;;;;;;34.75;13.95;;;2.40;99.90;;;;;;10335306;28;20461;-66
2020/12/02 06:24:49;;;;;;;36.08;14.85;;;2.40;99.90;;;;;;10334401;28;20958;-65
2020/12/02 06:30:17;;;;;;;38.92;14.98;;;2.40;99.90;;;;;;10334616;28;20050;-65
2020/12/02 06:35:20;;;;;;;36.63;16.27;;;2.40;99.90;;;;;;10226275;28;20057;-65
2020/12/02 06:40:44;;;;;;;33.95;15.80;;;2.40;99.90;;;;;;10339459;28;20042;-66
2020/12/02 06:45:45;;;;;;;31.20;15.13;;;2.40;99.90;;;;;;10285321;28;20049;-66
2020/12/02 06:50:46;;;;;;;28.52;15.05;;;2.40;99.90;;;;;;10330589;28;20049;-66
2020/12/02 06:55:54;;;;;;;31.88;15.57;;;2.40;99.90;;;;;;10335584;28;20058;-66
2020/12/02 07:01:00;;;;;;;32.58;15.07;;;2.30;99.90;;;;;;10323895;28;20426;-66
2020/12/02 07:06:26;;;;;;;25.05;12.90;;;2.30;99.90;;;;;;10330796;28;20501;-65
2020/12/02 07:11:28;;;;;;;23.48;11.75;;;2.40;99.90;;;;;;10334610;28;20057;-66
2020/12/02 07:16:30;;;;;;;23.92;12.75;;;2.40;99.90;;;;;;10326937;28;20295;-65
2020/12/02 07:21:45;;;;;;;25.08;12.60;;;2.30;99.90;;;;;;10326044;28;20757;-68
2020/12/02 07:26:46;;;;;;;24.65;13.48;;;2.40;99.90;;;;;;10328528;28;20533;-68
2020/12/02 07:31:59;;;;;;;25.80;12.88;;;2.40;99.90;;;;;;10326677;28;20226;-68
2020/12/02 07:37:10;;;;;;;26.00;12.63;;;2.40;99.90;;;;;;10323159;28;20049;-68
2020/12/02 07:42:20;;;;;;;27.10;12.35;;;2.40;99.90;;;;;;10329282;28;20044;-68
2020/12/02 07:47:21;;;;;;;22.77;11.93;;;2.40;99.90;;;;;;10329137;28;20186;-68
2020/12/02 07:52:29;;;;;;;23.88;11.88;;;2.40;99.90;;;;;;10330098;28;20042;-65
2020/12/02 07:57:31;;;;;;;26.33;12.35;;;2.40;99.90;;;;;;10324706;28;20493;-65
2020/12/02 08:02:39;;;;;;;34.03;13.73;;;2.50;99.90;;;;;;10324206;28;20062;-65
2020/12/02 08:08:05;;;;;;;25.15;13.00;;;2.50;99.90;;;;;;10321982;28;20057;-65
2020/12/02 08:13:19;;;;;;;25.50;13.93;;;2.60;99.90;;;;;;10320165;28;20042;-65
2020/12/02 08:18:29;;;;;;;29.92;12.77;;;2.60;99.90;;;;;;10318840;28;20092;-65
2020/12/02 08:23:34;;;;;;;28.73;14.77;;;2.60;99.90;;;;;;10323375;28;20120;-65
2020/12/02 08:28:39;;;;;;;27.63;14.27;;;2.60;99.90;;;;;;10322035;28;20050;-65
2020/12/02 08:33:40;;;;;;;29.33;14.70;;;2.60;99.90;;;;;;10325760;28;20077;-66
2020/12/02 08:38:51;;;;;;;30.95;14.73;;;2.60;99.90;;;;;;10323865;28;20068;-65
2020/12/02 08:44:07;;;;;;;26.60;12.70;;;2.50;99.90;;;;;;10323835;28;20713;-65
2020/12/02 08:49:09;;;;;;;25.38;13.43;;;2.50;99.90;;;;;;10215030;28;20050;-65
2020/12/02 08:54:13;;;;;;;27.95;13.93;;;2.40;99.90;;;;;;10320118;28;20528;-65
2020/12/02 08:59:15;;;;;;;26.25;13.85;;;2.50;99.90;;;;;;10325791;28;20072;-65
2020/12/02 09:04:16;;;;;;;32.88;15.23;;;2.50;99.90;;;;;;10325327;28;20046;-65
2020/12/02 09:09:17;;;;;;;25.00;13.77;;;2.70;99.90;;;;;;10320335;28;20053;-64
2020/12/02 09:14:19;;;;;;;30.77;13.57;;;2.80;99.90;;;;;;10311523;28;20465;-64
2020/12/02 09:19:20;;;;;;;30.23;14.20;;;2.80;99.90;;;;;;10313448;28;20467;-64
2020/12/02 09:24:21;;;;;;;29.13;14.65;;;3.00;99.90;;;;;;10329682;28;20057;-64
2020/12/02 09:29:22;;;;;;;27.30;14.10;;;3.00;99.90;;;;;;10331500;28;20493;-64
2020/12/02 09:34:24;;;;;;;28.92;14.35;;;3.10;99.90;;;;;;10330032;28;20104;-63
2020/12/02 09:39:26;;;;;;;29.55;14.25;;;3.20;99.90;;;;;;10328738;28;20038;-64
2020/12/02 09:44:51;;;;;;;25.25;13.10;;;3.20;99.90;;;;;;10330455;28;20049;-64
2020/12/02 09:49:53;;;;;;;28.33;13.70;;;3.10;99.90;;;;;;10267820;28;20384;-64
2020/12/02 09:54:54;;;;;;;23.48;11.63;;;3.10;99.90;;;;;;10328515;28;20057;-64
2020/12/02 09:59:57;;;;;;;26.85;13.50;;;3.00;99.90;;;;;;10332927;28;20046;-64
2020/12/02 10:05:36;;;;;;;24.73;13.10;;;3.10;99.90;;;;;;10330384;28;20042;-64
2020/12/02 10:10:43;;;;;;;31.25;14.90;;;3.20;99.90;;;;;;10333767;28;20554;-65
2020/12/02 10:15:55;;;;;;;27.05;13.75;;;3.10;99.90;;;;;;10330055;28;20048;-64
2020/12/02 10:21:12;;;;;;;29.92;14.98;;;3.20;99.90;;;;;;10328781;28;20049;-65
2020/12/02 10:26:56;;;;;;;26.23;15.10;;;3.30;99.90;;;;;;10250369;28;20117;-64
2020/12/02 10:32:11;;;;;;;30.58;13.43;;;3.30;99.90;;;;;;10273744;28;20056;-65
2020/12/02 10:37:45;;;;;;;29.80;13.38;;;3.30;99.90;;;;;;10269931;28;20053;-64
2020/12/02 10:42:58;;;;;;;29.45;13.32;;;3.30;99.90;;;;;;10272714;28;20053;-65
2020/12/02 10:48:22;;;;;;;24.10;12.38;;;3.40;99.90;;;;;;10327895;28;20129;-65
2020/12/02 10:53:25;;;;;;;23.30;12.30;;;3.40;99.90;;;;;;10325360;28;20967;-64
2020/12/02 10:58:29;;;;;;;25.25;13.20;;;3.60;99.90;;;;;;10323397;28;20054;-65
2020/12/02 11:03:38;;;;;;;27.15;12.20;;;3.60;99.90;;;;;;10326273;28;20569;-65
2020/12/02 11:09:09;;;;;;;21.13;10.85;;;3.70;99.90;;;;;;10327329;28;20048;-65
2020/12/02 11:14:51;;;;;;;24.23;11.77;;;3.70;99.90;;;;;;10263417;28;20053;-65
2020/12/02 11:20:06;;;;;;;23.00;12.35;;;3.70;99.90;;;;;;10259866;28;20810;-65
2020/12/02 11:25:23;;;;;;;25.75;13.15;;;3.70;99.90;;;;;;10326981;28;20164;-65
2020/12/02 11:30:33;;;;;;;25.65;12.50;;;3.70;99.90;;;;;;10328003;28;20457;-65
2020/12/02 11:36:05;;;;;;;23.00;12.55;;;3.80;99.90;;;;;;10327348;28;20046;-65
2020/12/02 11:41:32;;;;;;;25.70;13.73;;;3.80;99.90;;;;;;10326254;28;20115;-65
2020/12/02 11:46:37;;;;;;;29.13;14.07;;;3.80;99.90;;;;;;10325676;28;20076;-65
2020/12/02 11:51:53;;;;;;;25.70;13.73;;;3.80;99.90;;;;;;10331025;28;20049;-65
2020/12/02 11:56:54;;;;;;;25.60;14.90;;;3.70;99.90;;;;;;10330334;28;20054;-65
2020/12/02 12:02:31;;;;;;;27.25;15.13;;;3.80;99.90;;;;;;10324663;28;20034;-65
2020/12/02 12:07:52;;;;;;;23.65;13.18;;;3.80;99.90;;;;;;10227414;28;20076;-65
2020/12/02 12:13:08;;;;;;;27.20;14.25;;;3.80;99.90;;;;;;10323933;28;20389;-65
2020/12/02 12:18:40;;;;;;;28.17;14.18;;;3.70;99.90;;;;;;10280694;28;20058;-66
2020/12/02 12:23:54;;;;;;;27.25;13.10;;;3.70;99.90;;;;;;10272894;28;20058;-66
2020/12/02 12:28:55;;;;;;;25.98;13.52;;;3.70;99.90;;;;;;10325150;28;20065;-67
2020/12/02 12:34:07;;;;;;;31.35;15.00;;;3.70;99.90;;;;;;10321881;28;20057;-65
2020/12/02 12:39:23;;;;;;;25.92;14.02;;;3.70;99.90;;;;;;10318740;28;20100;-63
2020/12/02 12:44:29;;;;;;;29.27;15.07;;;3.70;99.90;;;;;;10322898;28;21713;-63
2020/12/02 12:49:31;;;;;;;24.13;14.05;;;3.70;99.90;;;;;;10328788;28;20057;-63
2020/12/02 12:54:36;;;;;;;30.70;15.60;;;3.70;99.90;;;;;;10334162;28;21144;-63
2020/12/02 12:59:40;;;;;;;30.67;14.77;;;3.70;99.90;;;;;;10325840;28;20060;-63
2020/12/02 13:04:41;;;;;;;30.88;15.38;;;3.60;99.90;;;;;;10333992;28;20475;-62
2020/12/02 13:10:00;;;;;;;35.55;15.45;;;3.60;99.90;;;;;;10330727;28;20069;-63
2020/12/02 13:15:20;;;;;;;31.67;16.23;;;3.60;99.90;;;;;;10333950;28;20389;-63
2020/12/02 13:20:34;;;;;;;33.33;18.20;;;3.70;99.90;;;;;;10331930;28;20065;-63
2020/12/02 13:25:56;;;;;;;29.15;16.98;;;3.60;99.90;;;;;;10326184;28;20065;-63
2020/12/02 13:31:05;;;;;;;29.70;15.32;;;3.60;99.90;;;;;;10327752;28;20062;-62
2020/12/02 13:36:42;;;;;;;30.38;15.18;;;3.60;99.90;;;;;;10327127;28;20503;-63
2020/12/02 13:41:54;;;;;;;29.55;16.48;;;3.50;99.90;;;;;;10246385;28;20173;-62
2020/12/02 13:46:57;;;;;;;29.15;16.60;;;3.50;99.90;;;;;;10309632;28;20157;-63
2020/12/02 13:52:24;;;;;;;30.40;16.08;;;3.50;99.90;;;;;;10335805;28;20045;-63
2020/12/02 13:57:45;;;;;;;;;;;3.40;99.90;;;;;;10265216;28;20046;-63
2020/12/02 14:03:07;;;;;;;32.10;14.63;;;3.40;99.90;;;;;;10288884;28;19932;-63
2020/12/02 14:08:08;;;;;;;25.13;12.27;;;3.40;99.90;;;;;;10331513;28;20057;-64
2020/12/02 14:13:10;;;;;;;22.77;11.40;;;3.40;99.90;;;;;;10331047;28;20068;-63
2020/12/02 14:18:12;;;;;;;21.23;12.20;;;3.40;99.90;;;;;;10326096;28;20042;-64
2020/12/02 14:23:16;;;;;;;24.00;11.10;;;3.40;99.90;;;;;;10324821;28;20057;-63
2020/12/02 14:28:17;;;;;;;22.08;10.80;;;3.30;99.90;;;;;;10329321;28;20052;-63
2020/12/02 14:33:20;;;;;;;22.30;11.07;;;3.20;99.90;;;;;;10325721;28;20046;-63
2020/12/02 14:38:23;;;;;;;25.02;11.48;;;3.20;99.90;;;;;;10329691;28;20084;-64
2020/12/02 14:43:31;;;;;;;22.05;12.23;;;3.20;99.90;;;;;;10328311;28;20062;-64
2020/12/02 14:48:33;;;;;;;24.40;13.95;;;3.30;99.90;;;;;;10326022;28;20057;-63
2020/12/02 14:53:35;;;;;;;24.42;12.10;;;3.30;99.90;;;;;;10330001;28;20049;-64
2020/12/02 14:58:47;;;;;;;26.20;11.93;;;3.30;99.90;;;;;;10329641;28;20056;-63
2020/12/02 15:03:48;;;;;;;24.42;12.80;;;3.30;99.90;;;;;;10328205;28;20072;-64
2020/12/02 15:09:06;;;;;;;20.55;10.93;;;3.20;99.90;;;;;;10322412;28;20041;-64
2020/12/02 15:14:11;;;;;;;22.17;11.82;;;3.20;99.90;;;;;;10323309;28;20615;-64
2020/12/02 15:19:12;;;;;;;19.10;11.32;;;3.20;99.90;;;;;;10324165;28;20053;-63
2020/12/02 15:24:16;;;;;;;24.58;12.02;;;3.10;99.90;;;;;;10319351;28;20048;-63
2020/12/02 15:29:19;;;;;;;25.15;12.68;;;3.20;99.90;;;;;;10305944;28;20520;-64
2020/12/02 15:34:22;;;;;;;22.48;12.35;;;3.10;99.90;;;;;;10316147;28;20038;-64
2020/12/02 15:39:33;;;;;;;20.98;11.50;;;3.10;99.90;;;;;;10319537;28;20164;-63
2020/12/02 15:45:05;;;;;;;18.48;10.68;;;3.00;99.90;;;;;;10321113;28;20050;-64
2020/12/02 15:50:35;;;;;;;22.55;11.70;;;2.90;99.90;;;;;;10320525;28;20050;-63
2020/12/02 15:55:40;;;;;;;24.85;13.27;;;2.90;99.90;;;;;;10327763;28;20050;-63
2020/12/02 16:00:42;;;;;;;22.98;12.20;;;2.90;99.90;;;;;;10319911;28;20150;-63
2020/12/02 16:05:44;;;;;;;17.40;10.70;;;2.90;99.90;;;;;;10324602;28;20061;-67
2020/12/02 16:10:46;;;;;;;17.67;9.57;;;2.90;99.90;;;;;;10300618;28;20056;-67
2020/12/02 16:15:47;;;;;;;17.88;8.65;;;2.90;99.90;;;;;;10305277;28;20049;-67
2020/12/02 16:20:49;;;;;;;15.95;9.52;;;2.90;99.90;;;;;;10323475;28;20053;-67
2020/12/02 16:25:53;;;;;;;17.80;10.82;;;2.80;99.90;;;;;;10306594;28;20068;-67
2020/12/02 16:30:56;;;;;;;18.95;10.25;;;2.70;99.90;;;;;;10322712;28;20057;-68
2020/12/02 16:35:58;;;;;;;19.75;11.55;;;2.70;99.90;;;;;;10320723;28;20050;-67
2020/12/02 16:40:59;;;;;;;21.23;11.10;;;2.80;99.90;;;;;;10326641;28;20467;-67
2020/12/02 16:46:19;;;;;;;20.50;10.40;;;2.70;99.90;;;;;;10326460;28;20045;-68
2020/12/02 16:52:00;;;;;;;21.05;11.02;;;2.80;99.90;;;;;;10260975;28;20103;-68
2020/12/02 16:57:22;;;;;;;19.30;10.10;;;2.80;99.90;;;;;;10241274;28;20556;-68
2020/12/02 17:03:12;;;;;;;23.27;11.27;;;2.80;99.90;;;;;;10258488;28;20532;-64
2020/12/02 17:08:16;;;;;;;25.40;12.75;;;2.70;99.90;;;;;;10070791;28;20047;-64
2020/12/02 17:14:00;;;;;;;25.58;13.05;;;2.70;99.90;;;;;;10283708;28;20227;-64
2020/12/02 17:19:26;;;;;;;23.92;12.70;;;2.70;99.90;;;;;;10254995;28;20045;-64
2020/12/02 17:25:01;;;;;;;24.17;13.23;;;2.70;99.90;;;;;;10316927;28;20049;-64
2020/12/02 17:30:14;;;;;;;21.85;12.05;;;2.70;99.90;;;;;;10241450;28;20050;-64
2020/12/02 17:35:27;;;;;;;18.27;10.07;;;2.80;99.90;;;;;;10327117;28;20045;-64
2020/12/02 17:40:56;;;;;;;23.10;13.23;;;2.80;99.90;;;;;;10327891;28;20083;-64
2020/12/02 17:46:45;;;;;;;20.17;11.52;;;2.80;99.90;;;;;;10238701;28;20049;-64
2020/12/02 17:52:14;;;;;;;25.63;13.02;;;2.80;99.90;;;;;;10202148;28;20042;-64
2020/12/02 17:57:22;;;;;;;25.77;13.15;;;2.80;99.90;;;;;;10265314;28;20061;-67
2020/12/02 18:02:40;;;;;;;20.65;10.82;;;2.80;99.90;;;;;;10325701;28;20065;-67
2020/12/02 18:08:08;;;;;;;23.85;12.52;;;2.80;99.90;;;;;;10326543;28;20057;-67
2020/12/02 18:13:26;;;;;;;20.13;11.13;;;2.70;99.90;;;;;;10329066;28;20038;-67
2020/12/02 18:18:47;;;;;;;;;;;2.70;99.90;;;;;;10330289;28;20172;-67
2020/12/02 18:24:26;;;;;;;21.70;12.55;;;2.70;99.90;;;;;;10282534;28;19929;-67
2020/12/02 18:29:50;;;;;;;25.08;13.13;;;2.60;99.90;;;;;;10195036;28;20042;-67
2020/12/02 18:35:19;;;;;;;24.05;12.90;;;2.50;99.90;;;;;;10281097;28;20050;-66
2020/12/02 18:40:40;;;;;;;42.90;19.25;;;2.50;99.90;;;;;;10285926;28;20412;-66
2020/12/02 18:45:45;;;;;;;32.22;17.63;;;2.40;99.90;;;;;;10333446;28;20049;-67
2020/12/02 18:50:46;;;;;;;27.10;13.70;;;2.40;99.90;;;;;;10330392;28;20496;-68
2020/12/02 18:55:50;;;;;;;22.77;13.38;;;2.40;99.90;;;;;;10327086;28;20057;-67
2020/12/02 19:00:53;;;;;;;29.88;15.27;;;2.40;99.90;;;;;;10327171;28;20053;-67
2020/12/02 19:05:55;;;;;;;29.42;16.50;;;2.40;99.90;;;;;;10327738;28;20052;-68
2020/12/02 19:11:20;;;;;;;27.48;15.10;;;2.40;99.90;;;;;;10326519;28;20060;-68
2020/12/02 19:16:33;;;;;;;27.17;13.77;;;2.50;99.90;;;;;;10277102;28;20057;-67
2020/12/02 19:21:55;;;;;;;27.98;14.68;;;2.50;99.90;;;;;;10325198;28;20049;-67
2020/12/02 19:27:35;;;;;;;29.17;13.65;;;2.50;99.90;;;;;;10327940;28;20041;-67
2020/12/02 19:33:11;;;;;;;28.40;14.48;;;2.50;99.90;;;;;;10269460;28;20057;-67
2020/12/02 19:38:26;;;;;;;31.02;14.50;;;2.50;99.90;;;;;;10277839;28;20064;-67
2020/12/02 19:43:52;;;;;;;32.75;14.95;;;2.40;99.90;;;;;;10326653;28;20046;-67
2020/12/02 19:48:56;;;;;;;30.90;14.75;;;2.40;99.90;;;;;;10262227;28;20050;-68
2020/12/02 19:54:08;;;;;;;29.88;14.55;;;2.30;99.90;;;;;;10330632;28;20064;-68
2020/12/02 19:59:30;;;;;;;32.45;16.10;;;2.30;99.90;;;;;;10329640;28;20181;-68
2020/12/02 20:04:47;;;;;;;31.75;15.23;;;2.40;99.90;;;;;;10324838;28;20084;-67
2020/12/02 20:10:16;;;;;;;28.40;14.90;;;2.50;99.90;;;;;;10283225;28;20049;-69
2020/12/02 20:15:36;;;;;;;;;;;2.50;99.90;;;;;;10255167;28;20473;-68
2020/12/02 20:20:49;;;;;;;32.47;14.60;;;2.50;99.90;;;;;;10325023;28;19937;-68
2020/12/02 20:26:05;;;;;;;30.70;15.05;;;2.30;99.90;;;;;;10329480;28;20057;-68
2020/12/02 20:31:09;;;;;;;29.73;15.18;;;2.30;99.90;;;;;;10326064;28;20045;-68
2020/12/02 20:36:11;;;;;;;35.17;16.95;;;2.30;99.90;;;;;;10328985;28;20060;-69
2020/12/02 20:41:14;;;;;;;30.02;15.20;;;2.30;99.90;;;;;;10324759;28;20062;-69
2020/12/02 20:46:34;;;;;;;29.63;13.68;;;2.30;99.90;;;;;;10328513;28;20464;-68
2020/12/02 20:52:06;;;;;;;34.10;14.90;;;2.30;99.90;;;;;;10321279;28;20058;-68
2020/12/02 20:57:16;;;;;;;29.23;14.32;;;2.40;99.90;;;;;;10302305;28;20077;-69
2020/12/02 21:02:26;;;;;;;30.65;15.27;;;2.30;99.90;;;;;;10322797;28;20053;-69
2020/12/02 21:07:28;;;;;;;33.08;16.20;;;2.30;99.90;;;;;;10334115;28;20515;-68
2020/12/02 21:12:31;;;;;;;28.63;14.77;;;2.30;99.90;;;;;;10332150;28;20192;-69
2020/12/02 21:17:47;;;;;;;34.05;15.82;;;2.30;99.90;;;;;;10338085;28;20050;-69
2020/12/02 21:23:04;;;;;;;34.08;17.45;;;2.20;99.90;;;;;;10280460;28;20515;-69
2020/12/02 21:28:23;;;;;;;36.95;18.10;;;2.20;99.90;;;;;;10332587;28;20057;-69
2020/12/02 21:33:56;;;;;;;32.45;16.77;;;2.20;99.90;;;;;;10333305;28;20056;-68
2020/12/02 21:39:22;;;;;;;36.05;18.45;;;2.10;99.90;;;;;;10264647;28;20998;-69
2020/12/02 21:44:55;;;;;;;35.85;17.05;;;2.10;99.90;;;;;;10283955;28;20045;-69
2020/12/02 21:50:20;;;;;;;39.78;19.13;;;2.10;99.90;;;;;;10280932;28;20054;-68
2020/12/02 21:56:05;;;;;;;35.17;18.73;;;2.20;99.90;;;;;;10279629;28;20049;-67
2020/12/02 22:01:19;;;;;;;39.08;19.55;;;2.10;99.90;;;;;;10256113;28;20049;-69
2020/12/02 22:06:53;;;;;;;35.00;18.42;;;2.10;99.90;;;;;;10332569;28;20061;-69
2020/12/02 22:11:56;;;;;;;35.78;18.15;;;2.00;99.90;;;;;;10254184;28;20115;-68
2020/12/02 22:17:12;;;;;;;34.58;17.90;;;2.00;99.90;;;;;;10331226;28;20057;-69
2020/12/02 22:22:38;;;;;;;38.47;20.40;;;1.90;99.90;;;;;;10265539;28;20061;-66
2020/12/02 22:27:46;;;;;;;30.27;14.50;;;1.90;99.90;;;;;;10333274;28;20065;-66
2020/12/02 22:33:24;;;;;;;36.17;17.73;;;1.70;99.90;;;;;;10335744;28;20501;-68
2020/12/02 22:38:55;;;;;;;38.13;17.85;;;1.70;99.90;;;;;;10287260;28;20069;-66
2020/12/02 22:44:01;;;;;;;42.63;19.10;;;1.50;99.90;;;;;;10255834;28;20060;-66
2020/12/02 22:49:03;;;;;;;47.63;21.15;;;1.40;99.90;;;;;;10330045;28;20135;-66
2020/12/02 22:54:05;;;;;;;52.17;21.67;;;1.40;99.90;;;;;;10331717;28;20096;-69
2020/12/02 22:59:12;;;;;;;56.70;22.65;;;1.30;99.90;;;;;;10330709;28;20127;-68
2020/12/02 23:04:15;;;;;;;56.05;23.10;;;3.00;99.90;;;;;;10333095;28;20084;-69
2020/12/02 23:09:25;;;;;;;64.70;25.92;;;1.30;99.90;;;;;;10332338;28;20061;-68
2020/12/02 23:14:36;;;;;;;63.33;25.63;;;1.20;99.90;;;;;;10330850;28;20650;-65
2020/12/02 23:19:41;;;;;;;55.47;23.90;;;1.30;99.90;;;;;;10335452;28;20620;-66
2020/12/02 23:24:42;;;;;;;65.72;26.23;;;1.30;99.90;;;;;;10331460;28;20057;-68
2020/12/02 23:29:51;;;;;;;68.95;25.38;;;1.30;99.90;;;;;;10327485;28;20149;-66
2020/12/02 23:34:54;;;;;;;49.65;18.52;;;1.30;99.90;;;;;;10329488;28;20050;-66
2020/12/02 23:39:55;;;;;;;68.60;24.45;;;1.30;99.90;;;;;;10328265;28;20400;-66
2020/12/02 23:45:04;;;;;;;65.45;23.73;;;1.20;99.90;;;;;;10229242;28;20041;-66
2020/12/02 23:50:18;;;;;;;64.10;23.45;;;1.20;99.90;;;;;;10328862;28;20050;-66
2020/12/02 23:55:23;;;;;;;56.80;23.48;;;1.20;99.90;;;;;;10326030;28;20062;-66
